Time;durP1;ratioP1;P1;durP2;ratioP2;P2;SDS_P1;SDS_P2;PMS_P1;PMS_P2;Temp;Humidity;BMP_temperature;BMP_pressure;BME280_temperature;BME280_humidity;BME280_pressure;Samples;Min_cycle;Max_cycle;Signal;HPM_P1;HPM_P2
2022/10/11 00:01:21;;;;;;;0.88;0.68;;;;;;;8.38;81.80;102584.75;5035905;28;114268;-29
2022/10/11 00:03:46;;;;;;;2.28;0.85;;;;;;;8.36;81.72;102578.50;5037130;28;97300;-29
2022/10/11 00:06:12;;;;;;;1.75;1.00;;;;;;;8.34;81.68;102593.84;5036942;28;96443;-30
2022/10/11 00:08:37;;;;;;;2.50;1.10;;;;;;;8.34;81.76;102599.25;5036811;27;96775;-31
2022/10/11 00:11:06;;;;;;;1.40;0.77;;;;;;;8.33;81.72;102602.00;5036252;27;100152;-29
2022/10/11 00:13:32;;;;;;;1.27;0.90;;;;;;;8.28;81.63;102600.28;5034835;28;101179;-30
2022/10/11 00:15:57;;;;;;;1.30;0.55;;;;;;;8.25;81.50;102600.38;5036482;27;96506;-29
2022/10/11 00:18:23;;;;;;;0.90;0.60;;;;;;;8.24;81.69;102597.69;5036777;27;96692;-31
2022/10/11 00:20:48;;;;;;;2.05;0.70;;;;;;;8.24;81.76;102603.97;5036235;27;97699;-29
2022/10/11 00:23:14;;;;;;;0.50;0.47;;;;;;;8.23;81.95;102606.72;5036444;28;97802;-31
2022/10/11 00:25:40;;;;;;;1.17;0.73;;;;;;;8.19;81.81;102605.03;5035010;28;96561;-29
2022/10/11 00:28:05;;;;;;;0.63;0.40;;;;;;;8.19;81.72;102611.28;5036909;27;96750;-30
2022/10/11 00:30:31;;;;;;;1.55;0.57;;;;;;;8.16;81.87;102614.06;5035942;28;99325;-30
2022/10/11 00:32:57;;;;;;;1.95;0.88;;;;;;;8.13;81.82;102608.75;5034602;28;100442;-30
2022/10/11 00:35:22;;;;;;;1.08;0.63;;;;;;;8.16;81.72;102618.59;5035966;28;96550;-29
2022/10/11 00:37:48;;;;;;;1.70;0.65;;;;;;;8.14;81.91;102606.94;5036391;27;96738;-30
2022/10/11 00:40:16;;;;;;;0.95;0.57;;;;;;;8.12;81.90;102611.47;5035732;27;99273;-30
2022/10/11 00:42:41;;;;;;;1.33;0.90;;;;;;;8.07;81.93;102615.16;5034023;27;100993;-30
2022/10/11 00:45:25;;;;;;;2.65;0.77;;;;;;;8.11;82.17;102617.81;5035839;28;96479;-30
2022/10/11 00:47:51;;;;;;;1.13;0.80;;;;;;;8.06;82.06;102615.22;5036650;28;96656;-30
2022/10/11 00:50:21;;;;;;;0.88;0.50;;;;;;;8.07;82.20;102619.69;5034441;28;101118;-30
2022/10/11 00:52:54;;;;;;;1.25;0.63;;;;;;;8.07;81.81;102616.97;5034831;28;100882;-30
2022/10/11 00:55:23;;;;;;;2.58;0.70;;;;;;;8.05;81.58;102621.53;5036130;28;96639;-30
2022/10/11 00:57:51;;;;;;;1.10;0.75;;;;;;;8.02;82.08;102616.19;5034677;28;96966;-30
2022/10/11 01:00:18;;;;;;;1.73;0.90;;;;;;;8.02;81.92;102614.38;5035130;28;97487;-29
2022/10/11 01:02:43;;;;;;;1.17;0.50;;;;;;;8.02;82.03;102622.47;5034254;28;101175;-29
2022/10/11 01:05:12;;;;;;;1.48;0.85;;;;;;;7.99;82.09;102625.25;5036185;28;96585;-29
2022/10/11 01:07:38;;;;;;;1.80;0.80;;;;;;;8.01;81.89;102627.94;5035652;28;96787;-31
2022/10/11 01:10:04;;;;;;;1.77;0.80;;;;;;;8.02;82.08;102627.00;5034195;28;100998;-31
2022/10/11 01:12:30;;;;;;;1.92;0.77;;;;;;;8.01;81.85;102627.94;5035629;28;97909;-29
2022/10/11 01:15:07;;;;;;;1.40;0.57;;;;;;;8.02;82.09;102629.69;5035676;27;96511;-29
2022/10/11 01:18:02;;;;;;;1.00;0.73;;;;;;;7.99;81.95;102640.56;5036195;27;96806;-30
2022/10/11 01:20:36;;;;;;;3.90;0.65;;;;;;;7.97;82.18;102637.00;5035371;27;97959;-30
2022/10/11 01:23:11;;;;;;;1.95;0.50;;;;;;;7.96;82.00;102637.91;5033874;28;101217;-29
2022/10/11 01:25:55;;;;;;;1.08;0.57;;;;;;;7.95;82.12;102639.72;5033520;28;96717;-30
2022/10/11 01:28:50;;;;;;;0.63;0.43;;;;;;;7.93;82.02;102648.78;5034913;27;96739;-32
2022/10/11 01:31:26;;;;;;;0.70;0.55;;;;;;;7.87;82.19;102636.31;5035071;27;99484;-30
2022/10/11 01:34:04;;;;;;;1.90;0.55;;;;;;;7.88;82.36;102636.28;5033892;28;101014;-29
2022/10/11 01:36:40;;;;;;;2.25;0.80;;;;;;;7.88;82.28;102635.38;5034124;28;96566;-31
2022/10/11 01:39:15;;;;;;;2.15;0.82;;;;;;;7.82;82.11;102639.13;5033709;28;96762;-30
2022/10/11 01:41:47;;;;;;;1.63;0.73;;;;;;;7.81;82.16;102641.84;5033491;28;100930;-30
2022/10/11 01:44:13;;;;;;;1.20;0.60;;;;;;;7.79;82.03;102641.84;5034000;28;100868;-29
2022/10/11 01:46:39;;;;;;;1.83;0.82;;;;;;;7.80;81.76;102648.16;5035002;27;96802;-30
2022/10/11 01:49:05;;;;;;;1.20;0.70;;;;;;;7.78;82.11;102645.50;5035289;27;96572;-30
2022/10/11 01:51:42;;;;;;;0.70;0.45;;;;;;;7.73;82.30;102654.59;5032725;27;104372;-30
2022/10/11 01:54:12;;;;;;;0.85;0.57;;;;;;;7.73;82.30;102652.78;5033424;28;101227;-29
2022/10/11 01:56:56;;;;;;;2.30;0.98;;;;;;;7.73;82.17;102650.09;5035173;27;96548;-29
2022/10/11 01:59:48;;;;;;;0.90;0.55;;;;;;;7.69;82.04;102652.88;5033644;28;96706;-30
2022/10/11 02:02:25;;;;;;;2.30;0.73;;;;;;;7.66;82.34;102653.84;5033425;28;100934;-30
2022/10/11 02:05:03;;;;;;;1.80;1.00;;;;;;;7.66;82.40;102648.44;5035112;27;97828;-30
2022/10/11 02:07:44;;;;;;;0.57;0.47;;;;;;;7.65;82.39;102650.25;5033805;28;97263;-30
2022/10/11 02:10:31;;;;;;;1.08;0.80;;;;;;;7.63;82.52;102654.78;5035384;27;96621;-31
2022/10/11 02:13:08;;;;;;;0.85;0.50;;;;;;;7.62;82.29;102650.28;5017239;28;101335;-30
2022/10/11 02:15:38;;;;;;;6.82;1.00;;;;;;;7.61;82.20;102644.97;5033043;28;98786;-29
2022/10/11 02:18:08;;;;;;;2.60;0.75;;;;;;;7.60;82.23;102651.25;5034607;27;96614;-30
2022/10/11 02:20:38;;;;;;;1.33;0.68;;;;;;;7.57;81.95;102645.94;5033098;28;96773;-29
2022/10/11 02:23:14;;;;;;;2.40;0.65;;;;;;;7.59;81.98;102646.78;5033042;28;100941;-29
2022/10/11 02:25:43;;;;;;;4.43;0.90;;;;;;;7.53;82.14;102647.81;5034512;27;99244;-32
2022/10/11 02:28:21;;;;;;;1.38;0.70;;;;;;;7.53;82.52;102641.50;5033372;28;96617;-29
2022/10/11 02:30:49;;;;;;;2.65;0.60;;;;;;;7.52;82.21;102640.63;5034862;27;96599;-31
2022/10/11 02:33:20;;;;;;;1.45;0.30;;;;;;;7.50;82.38;102633.50;5034203;27;99437;-30
2022/10/11 02:35:52;;;;;;;0.50;0.32;;;;;;;7.50;82.23;102642.47;5033405;28;101097;-30
2022/10/11 02:38:31;;;;;;;2.70;0.68;;;;;;;7.46;82.08;102640.78;5034748;27;96614;-31
2022/10/11 02:41:30;;;;;;;1.27;0.80;;;;;;;7.49;82.30;102654.19;5036653;28;96708;-29
2022/10/11 02:44:25;;;;;;;0.77;0.50;;;;;;;7.47;82.21;102655.13;5008984;28;103329;-29
2022/10/11 02:46:51;;;;;;;0.80;0.50;;;;;;;7.45;82.01;102652.44;5035882;28;101282;-30
2022/10/11 02:49:17;;;;;;;0.47;0.40;;;;;;;7.42;81.85;102655.22;5038202;27;96523;-30
2022/10/11 02:51:42;;;;;;;0.68;0.45;;;;;;;7.39;82.26;102650.78;5036568;28;96801;-30
2022/10/11 02:54:08;;;;;;;2.55;0.52;;;;;;;7.37;82.29;102654.41;5037625;27;97898;-29
2022/10/11 02:56:33;;;;;;;5.82;0.88;;;;;;;7.39;82.21;102660.69;5037831;27;97831;-30
2022/10/11 02:58:58;;;;;;;0.63;0.35;;;;;;;7.41;82.12;102666.91;5037551;28;100749;-29
2022/10/11 03:01:24;;;;;;;2.95;0.63;;;;;;;7.36;82.23;102663.41;5038480;27;96747;-31
2022/10/11 03:03:50;;;;;;;1.08;0.80;;;;;;;7.35;81.88;102667.03;5036204;28;101015;-30
2022/10/11 03:06:15;;;;;;;0.43;0.28;;;;;;;7.34;82.56;102655.38;5037217;28;98921;-30
2022/10/11 03:08:40;;;;;;;2.20;0.98;;;;;;;7.35;82.35;102661.66;5037117;27;96654;-30
2022/10/11 03:11:06;;;;;;;2.22;0.77;;;;;;;7.36;82.34;102668.81;5037714;27;96795;-30
2022/10/11 03:13:31;;;;;;;1.15;0.63;;;;;;;7.36;82.64;102666.09;5037075;27;99555;-29
2022/10/11 03:15:56;;;;;;;2.30;0.88;;;;;;;7.33;82.49;102658.09;5036632;28;116123;-30
2022/10/11 03:18:21;;;;;;;1.25;0.73;;;;;;;7.32;82.42;102656.31;5036990;27;106858;-29
2022/10/11 03:20:47;;;;;;;7.32;1.02;;;;;;;7.29;82.47;102659.94;5037444;27;96852;-30
2022/10/11 03:23:12;;;;;;;1.55;0.60;;;;;;;7.34;82.65;102670.63;5036711;28;109240;-30
2022/10/11 03:25:38;;;;;;;1.23;0.82;;;;;;;7.32;82.77;102664.41;5037642;28;97791;-30
2022/10/11 03:28:04;;;;;;;2.15;0.70;;;;;;;7.33;82.77;102672.44;5037523;27;96453;-30
2022/10/11 03:30:29;;;;;;;0.95;0.70;;;;;;;7.30;82.88;102666.22;5036041;28;96744;-32
2022/10/11 03:32:54;;;;;;;0.75;0.60;;;;;;;7.31;82.73;102670.69;5036912;27;97333;-30
2022/10/11 03:35:20;;;;;;;2.60;0.82;;;;;;;7.31;82.63;102671.56;5036873;28;103285;-30
2022/10/11 03:37:45;;;;;;;1.55;0.57;;;;;;;7.33;82.84;102671.56;5037029;27;96986;-30
2022/10/11 03:40:11;;;;;;;2.83;0.90;;;;;;;7.28;82.62;102668.94;5037237;27;96693;-30
2022/10/11 03:42:37;;;;;;;1.30;0.88;;;;;;;7.31;82.64;102674.28;5035246;27;100758;-30
2022/10/11 03:45:06;;;;;;;2.67;0.80;;;;;;;7.30;82.55;102672.50;5036794;27;97840;-29
2022/10/11 03:47:33;;;;;;;2.13;0.68;;;;;;;7.29;82.85;102672.53;5037030;28;96657;-30
2022/10/11 03:49:58;;;;;;;0.40;0.35;;;;;;;7.28;82.63;102679.72;5035424;27;97083;-29
2022/10/11 03:52:24;;;;;;;0.60;0.40;;;;;;;7.25;82.90;102681.59;5036540;27;99125;-31
2022/10/11 03:54:49;;;;;;;2.30;0.70;;;;;;;7.26;82.90;102688.75;5036711;27;98797;-30
2022/10/11 03:57:14;;;;;;;0.77;0.38;;;;;;;7.26;82.68;102675.28;5036107;28;102667;-29
2022/10/11 03:59:40;;;;;;;2.25;0.88;;;;;;;7.27;82.69;102674.34;5037022;27;96738;-29
2022/10/11 04:02:05;;;;;;;1.05;0.60;;;;;;;7.27;82.78;102675.28;5034990;28;110364;-30
2022/10/11 04:04:31;;;;;;;0.60;0.47;;;;;;;7.25;82.75;102678.91;5036499;27;98561;-30
2022/10/11 04:06:56;;;;;;;1.95;0.88;;;;;;;7.28;82.55;102685.13;5036897;27;96724;-29
2022/10/11 04:09:21;;;;;;;5.30;0.73;;;;;;;7.27;82.80;102682.44;5036889;28;96828;-30
2022/10/11 04:11:47;;;;;;;0.75;0.43;;;;;;;7.28;82.50;102678.84;5036612;27;97307;-30
2022/10/11 04:14:12;;;;;;;1.92;0.85;;;;;;;7.26;82.47;102677.97;5036178;27;114303;-30
2022/10/11 04:16:37;;;;;;;0.60;0.38;;;;;;;7.28;82.78;102689.63;5036624;27;96700;-31
2022/10/11 04:19:03;;;;;;;1.10;0.77;;;;;;;7.27;82.70;102686.06;5035299;28;96879;-30
2022/10/11 04:21:29;;;;;;;0.88;0.70;;;;;;;7.27;82.81;102685.13;5034328;28;100880;-30
2022/10/11 04:23:54;;;;;;;2.85;0.60;;;;;;;7.25;82.74;102693.28;5036432;27;97972;-29
2022/10/11 04:26:19;;;;;;;2.80;0.73;;;;;;;7.27;82.86;102698.63;5036397;27;96706;-30
2022/10/11 04:28:45;;;;;;;1.35;0.80;;;;;;;7.27;82.72;102698.63;5036575;27;96750;-30
2022/10/11 04:31:10;;;;;;;0.70;0.40;;;;;;;7.26;82.91;102700.44;5034891;28;99255;-30
2022/10/11 04:33:35;;;;;;;1.15;0.52;;;;;;;7.26;83.02;102699.53;5036110;27;97762;-29
2022/10/11 04:36:01;;;;;;;0.68;0.60;;;;;;;7.24;83.07;102704.94;5036150;27;96537;-31
2022/10/11 04:38:26;;;;;;;0.47;0.40;;;;;;;7.22;82.81;102698.69;5036514;28;101920;-30
2022/10/11 04:40:51;;;;;;;1.05;0.63;;;;;;;7.21;82.99;102708.59;5035795;27;97913;-30
2022/10/11 04:43:17;;;;;;;1.70;0.60;;;;;;;7.22;82.87;102705.00;5036279;27;97275;-29
2022/10/11 04:45:43;;;;;;;0.75;0.52;;;;;;;7.17;82.86;102708.66;5035165;27;96697;-29
2022/10/11 04:48:08;;;;;;;5.20;0.80;;;;;;;7.18;83.01;102705.06;5036265;28;96616;-30
2022/10/11 04:50:34;;;;;;;2.72;0.82;;;;;;;7.18;82.72;102707.78;5035610;28;99010;-29
2022/10/11 04:53:00;;;;;;;1.35;0.75;;;;;;;7.18;83.10;102719.44;5034381;28;100770;-29
2022/10/11 04:55:25;;;;;;;2.88;0.90;;;;;;;7.17;83.29;102709.56;5036448;27;96436;-30
2022/10/11 04:57:50;;;;;;;0.85;0.40;;;;;;;7.17;83.42;102724.84;5036226;27;96676;-29
2022/10/11 05:00:16;;;;;;;1.50;0.73;;;;;;;7.14;82.86;102711.44;5035720;27;100555;-30
2022/10/11 05:02:42;;;;;;;1.85;0.98;;;;;;;7.13;82.94;102707.84;5034871;28;98913;-29
2022/10/11 05:05:08;;;;;;;1.25;0.70;;;;;;;7.15;83.17;102716.81;5035159;27;101948;-29
2022/10/11 05:07:33;;;;;;;1.10;0.77;;;;;;;7.12;82.93;102718.66;5036110;27;96722;-29
2022/10/11 05:09:59;;;;;;;4.00;1.15;;;;;;;7.11;82.98;102714.19;5035324;27;97896;-30
2022/10/11 05:12:24;;;;;;;1.45;0.70;;;;;;;7.12;82.92;102718.66;5035371;27;99247;-30
2022/10/11 05:14:50;;;;;;;3.97;1.08;;;;;;;7.13;82.83;102729.41;5035682;27;96851;-29
2022/10/11 05:17:15;;;;;;;1.83;0.40;;;;;;;7.11;82.84;102715.06;5035596;27;96796;-30
2022/10/11 05:19:40;;;;;;;1.00;0.50;;;;;;;7.14;82.93;102725.78;5035189;27;99602;-30
2022/10/11 05:22:06;;;;;;;1.45;0.60;;;;;;;7.15;83.36;102726.66;5035070;28;105214;-31
2022/10/11 05:24:31;;;;;;;1.95;0.50;;;;;;;7.13;82.88;102728.53;5035883;27;96473;-29
2022/10/11 05:26:56;;;;;;;1.52;0.65;;;;;;;7.14;82.84;102727.59;5036160;27;96765;-30
2022/10/11 05:29:22;;;;;;;0.73;0.38;;;;;;;7.14;82.88;102730.28;5034750;28;112188;-30
2022/10/11 05:31:47;;;;;;;1.50;1.00;;;;;;;7.13;83.17;102724.03;5035351;27;97903;-29
2022/10/11 05:34:12;;;;;;;5.07;0.70;;;;;;;7.10;83.28;102729.44;5034608;28;102951;-31
2022/10/11 05:36:37;;;;;;;2.15;0.60;;;;;;;7.12;83.15;102734.81;5035065;28;96835;-29
2022/10/11 05:39:03;;;;;;;0.93;0.60;;;;;;;7.13;83.20;102740.19;5034512;28;114329;-30
2022/10/11 05:41:28;;;;;;;0.80;0.57;;;;;;;7.14;83.39;102743.75;5034889;27;98674;-30
2022/10/11 05:43:53;;;;;;;0.80;0.60;;;;;;;7.13;83.43;102748.28;5035548;27;96476;-30
2022/10/11 05:46:19;;;;;;;1.70;0.88;;;;;;;7.11;83.28;102738.44;5034606;27;99174;-30
2022/10/11 05:48:44;;;;;;;0.77;0.38;;;;;;;7.11;83.42;102742.00;5034689;27;106080;-30
2022/10/11 05:51:10;;;;;;;0.40;0.40;;;;;;;7.14;83.63;102750.03;5034759;27;97788;-29
2022/10/11 05:53:36;;;;;;;1.52;0.85;;;;;;;7.16;83.46;102745.50;5033802;28;96599;-29
2022/10/11 05:56:03;;;;;;;2.00;0.65;;;;;;;7.16;83.24;102748.22;5032351;28;97064;-30
2022/10/11 05:58:28;;;;;;;1.58;0.80;;;;;;;7.17;83.19;102754.47;5031629;28;101143;-30
2022/10/11 06:00:55;;;;;;;2.22;1.17;;;;;;;7.21;83.29;102750.84;5034697;27;105280;-29
2022/10/11 06:03:21;;;;;;;2.10;0.95;;;;;;;7.23;83.42;102752.59;5033611;28;96664;-30
2022/10/11 06:05:46;;;;;;;1.42;0.80;;;;;;;7.25;83.19;102757.06;5033316;28;96771;-31
2022/10/11 06:08:12;;;;;;;0.73;0.65;;;;;;;7.26;83.42;102757.03;5034943;27;97866;-31
2022/10/11 06:10:38;;;;;;;0.70;0.60;;;;;;;7.32;83.29;102764.16;5032184;28;100834;-29
2022/10/11 06:13:05;;;;;;;2.25;0.80;;;;;;;7.30;83.61;102765.97;5032537;27;97958;-29
2022/10/11 06:15:30;;;;;;;1.02;0.55;;;;;;;7.31;83.55;102759.66;5034543;27;96788;-30
2022/10/11 06:17:58;;;;;;;6.20;1.02;;;;;;;7.35;83.64;102767.66;5034240;28;97977;-31
2022/10/11 06:20:23;;;;;;;6.85;0.93;;;;;;;7.38;83.50;102767.59;5032531;28;100880;-30
2022/10/11 06:22:48;;;;;;;2.28;0.88;;;;;;;7.42;83.73;102773.84;5034026;28;96584;-30
2022/10/11 06:25:14;;;;;;;1.30;0.75;;;;;;;7.43;83.63;102771.09;5033717;28;113017;-29
2022/10/11 06:27:39;;;;;;;0.90;0.57;;;;;;;7.48;83.92;102775.53;5034496;28;101764;-29
2022/10/11 06:30:06;;;;;;;1.65;0.95;;;;;;;7.48;83.50;102767.44;5034052;28;110663;-30
2022/10/11 06:32:31;;;;;;;4.25;1.02;;;;;;;7.52;83.91;102785.34;5033337;28;96691;-30
2022/10/11 06:34:56;;;;;;;2.03;0.80;;;;;;;7.53;83.31;102782.63;5034757;27;96821;-29
2022/10/11 06:37:22;;;;;;;2.47;0.57;;;;;;;7.56;83.30;102782.56;5034448;27;97810;-29
2022/10/11 06:39:49;;;;;;;0.63;0.60;;;;;;;7.58;83.35;102783.44;5034615;27;102315;-30
2022/10/11 06:42:14;;;;;;;4.47;0.88;;;;;;;7.61;83.40;102794.16;5032988;27;96821;-29
2022/10/11 06:44:39;;;;;;;2.15;1.23;;;;;;;7.62;83.85;102781.56;5034594;27;97966;-30
2022/10/11 06:47:06;;;;;;;1.08;0.70;;;;;;;7.65;83.21;102787.81;5033029;28;114721;-29
2022/10/11 06:49:32;;;;;;;4.07;0.70;;;;;;;7.68;83.00;102785.97;5032471;28;101404;-29
2022/10/11 06:51:57;;;;;;;3.47;0.60;;;;;;;7.72;83.12;102785.88;5034776;27;96568;-30
2022/10/11 06:54:23;;;;;;;2.20;0.63;;;;;;;7.77;83.41;102792.09;5033770;27;103829;-30
2022/10/11 06:56:48;;;;;;;2.33;1.20;;;;;;;7.81;83.47;102796.50;5033922;28;99586;-29
2022/10/11 06:59:14;;;;;;;0.88;0.55;;;;;;;7.86;83.32;102807.19;5034079;28;97848;-29
2022/10/11 07:01:40;;;;;;;1.05;0.80;;;;;;;7.88;82.64;102798.16;5034422;27;96598;-31
2022/10/11 07:04:05;;;;;;;1.48;0.68;;;;;;;7.92;82.89;102807.09;5033147;28;96903;-30
2022/10/11 07:06:31;;;;;;;1.58;0.93;;;;;;;7.97;82.78;102809.72;5034084;27;97855;-29
2022/10/11 07:08:59;;;;;;;1.48;0.70;;;;;;;8.02;82.73;102813.22;5034091;27;97782;-30
2022/10/11 07:11:26;;;;;;;2.65;1.00;;;;;;;8.02;82.67;102802.41;5032343;28;96599;-30
2022/10/11 07:13:57;;;;;;;3.88;0.60;;;;;;;8.14;83.15;102810.25;5032529;28;96775;-29
2022/10/11 07:16:24;;;;;;;1.90;1.00;;;;;;;8.21;83.72;102808.34;5032267;28;100661;-29
2022/10/11 07:18:57;;;;;;;2.28;0.82;;;;;;;8.28;83.24;102812.69;5032360;28;101340;-32
2022/10/11 07:21:23;;;;;;;4.13;1.00;;;;;;;8.34;82.92;102815.25;5032860;28;96605;-30
2022/10/11 07:23:48;;;;;;;4.25;1.20;;;;;;;8.43;84.59;102804.28;5032771;28;97125;-29
2022/10/11 07:26:14;;;;;;;1.98;0.63;;;;;;;8.55;85.01;102811.25;5036169;28;97264;-29
2022/10/11 07:28:41;;;;;;;2.30;0.90;;;;;;;8.67;84.15;102819.06;5037300;28;99242;-29
2022/10/11 07:31:09;;;;;;;1.17;0.50;;;;;;;8.76;84.84;102817.13;5037250;27;96713;-30
2022/10/11 07:33:35;;;;;;;3.50;0.75;;;;;;;8.83;84.28;102816.06;5036038;27;96795;-29
2022/10/11 07:36:00;;;;;;;1.40;0.68;;;;;;;8.96;84.90;102835.56;5036335;27;99401;-29
2022/10/11 07:38:26;;;;;;;6.05;0.90;;;;;;;8.98;84.20;102829.19;5037155;27;97813;-29
2022/10/11 07:40:52;;;;;;;1.52;0.98;;;;;;;9.06;84.01;102827.22;5036926;27;96638;-30
2022/10/11 07:43:19;;;;;;;1.73;0.80;;;;;;;9.14;84.17;102821.63;5036000;28;96816;-30
2022/10/11 07:45:47;;;;;;;0.98;0.47;;;;;;;9.21;84.12;102834.09;5034883;28;100709;-29
2022/10/11 07:48:12;;;;;;;1.70;0.70;;;;;;;9.28;84.15;102826.72;5036801;27;99339;-29
2022/10/11 07:50:38;;;;;;;3.42;0.93;;;;;;;9.39;84.70;102831.84;5037663;28;96698;-29
2022/10/11 07:53:03;;;;;;;1.73;0.90;;;;;;;9.44;84.44;102830.81;5037477;28;96812;-29
2022/10/11 07:55:32;;;;;;;1.63;0.73;;;;;;;9.56;83.91;102829.63;5036798;28;97948;-29
2022/10/11 07:57:58;;;;;;;1.25;0.75;;;;;;;9.63;84.84;102833.97;5035461;28;101096;-30
2022/10/11 08:00:23;;;;;;;0.90;0.57;;;;;;;9.67;83.58;102832.03;5036211;27;96629;-29
2022/10/11 08:02:48;;;;;;;1.42;0.57;;;;;;;9.74;83.55;102834.53;5036768;27;96968;-30
2022/10/11 08:05:14;;;;;;;1.63;0.90;;;;;;;9.82;83.50;102828.97;5036540;27;104161;-30
2022/10/11 08:07:39;;;;;;;2.53;0.80;;;;;;;9.89;83.73;102840.47;5036671;28;97715;-29
2022/10/11 08:10:05;;;;;;;3.45;0.95;;;;;;;9.93;83.82;102832.25;5036324;27;98841;-29
2022/10/11 08:12:31;;;;;;;2.05;0.88;;;;;;;10.03;82.75;102845.53;5035411;28;96834;-31
2022/10/11 08:14:57;;;;;;;3.05;0.55;;;;;;;10.11;83.21;102836.28;5034495;28;100786;-30
2022/10/11 08:17:22;;;;;;;1.67;0.68;;;;;;;10.19;83.47;102847.78;5036630;28;99343;-29
2022/10/11 08:19:48;;;;;;;8.82;1.02;;;;;;;10.26;82.53;102848.50;5036740;27;96600;-31
2022/10/11 08:22:13;;;;;;;1.90;0.60;;;;;;;10.30;82.54;102850.22;5036721;27;96840;-29
2022/10/11 08:24:38;;;;;;;1.70;0.95;;;;;;;10.36;82.21;102843.75;5035848;27;97985;-30
2022/10/11 08:27:04;;;;;;;1.58;0.70;;;;;;;10.43;82.15;102849.88;5036348;27;102101;-30
2022/10/11 08:29:29;;;;;;;1.23;0.63;;;;;;;10.51;82.51;102853.25;5036634;27;96631;-29
2022/10/11 08:31:54;;;;;;;3.90;0.73;;;;;;;10.55;81.75;102850.41;5036315;27;97038;-30
2022/10/11 08:34:20;;;;;;;1.85;0.75;;;;;;;10.61;81.69;102858.38;5035577;27;98007;-29
2022/10/11 08:36:47;;;;;;;1.85;0.73;;;;;;;10.68;81.23;102860.88;5034855;27;103600;-29
2022/10/11 08:39:13;;;;;;;3.95;0.60;;;;;;;10.73;81.39;102862.53;5033364;28;96742;-30
2022/10/11 08:41:50;;;;;;;2.65;0.60;;;;;;;10.76;81.17;102867.84;5034180;28;96899;-29
2022/10/11 08:44:37;;;;;;;3.65;0.70;;;;;;;10.87;81.08;102872.97;5034592;28;100777;-31
2022/10/11 08:47:14;;;;;;;1.27;0.52;;;;;;;10.89;81.10;102872.91;5034206;28;99239;-29
2022/10/11 08:49:40;;;;;;;2.28;0.70;;;;;;;10.94;80.19;102870.94;5035913;27;96657;-30
2022/10/11 08:52:47;;;;;;;2.60;1.13;;;;;;;11.02;80.53;102872.50;5034738;27;96916;-30
2022/10/11 08:55:38;;;;;;;4.53;0.68;;;;;;;11.11;79.27;102876.75;5030803;27;97382;-30
2022/10/11 08:58:04;;;;;;;1.95;0.65;;;;;;;11.11;79.63;102878.53;5034512;28;100832;-30
2022/10/11 09:00:34;;;;;;;2.80;0.47;;;;;;;11.18;79.39;102874.75;5035711;27;96509;-31
2022/10/11 09:03:14;;;;;;;3.53;0.65;;;;;;;11.24;78.93;102875.41;5034666;28;96812;-29
2022/10/11 09:06:00;;;;;;;0.85;0.47;;;;;;;11.28;78.75;102868.06;5035674;28;98194;-29
2022/10/11 09:08:37;;;;;;;2.90;0.77;;;;;;;11.34;78.58;102873.28;5034612;28;100718;-30
2022/10/11 09:11:21;;;;;;;2.95;0.47;;;;;;;11.46;78.05;102869.28;5034559;28;96590;-29
2022/10/11 09:14:02;;;;;;;1.33;0.40;;;;;;;11.56;77.23;102865.34;5035818;28;96855;-29
2022/10/11 09:16:45;;;;;;;6.43;0.22;;;;;;;11.67;76.04;102881.25;5033749;28;101393;-29
2022/10/11 09:19:52;;;;;;;3.20;0.40;;;;;;;11.78;74.92;102876.38;5035655;27;97838;-30
2022/10/11 09:22:17;;;;;;;0.90;0.40;;;;;;;11.88;75.14;102876.97;5035873;28;96537;-29
2022/10/11 09:25:08;;;;;;;1.90;0.60;;;;;;;11.97;75.43;102871.22;5035861;28;96759;-29
2022/10/11 09:27:43;;;;;;;2.40;0.57;;;;;;;12.07;75.71;102874.50;5033865;28;101612;-29
2022/10/11 09:30:13;;;;;;;0.68;0.38;;;;;;;12.22;73.92;102873.06;5034052;28;100854;-30
2022/10/11 09:32:43;;;;;;;2.83;0.38;;;;;;;12.38;73.24;102874.28;5034208;28;96764;-30
2022/10/11 09:35:14;;;;;;;1.35;0.32;;;;;;;12.61;73.34;102868.00;5034577;28;96833;-29
2022/10/11 09:37:54;;;;;;;3.33;0.90;;;;;;;12.90;72.60;102876.88;5033834;28;100563;-30
2022/10/11 09:40:34;;;;;;;2.75;0.50;;;;;;;13.16;70.23;102878.59;5033579;28;100616;-30
2022/10/11 09:43:00;;;;;;;0.68;0.32;;;;;;;13.43;70.36;102873.00;5034896;28;96508;-29
2022/10/11 09:45:25;;;;;;;2.08;0.70;;;;;;;13.61;66.36;102866.81;5034217;28;107930;-31
2022/10/11 09:47:54;;;;;;;1.60;0.30;;;;;;;13.78;66.27;102868.81;5034033;27;110417;-30
2022/10/11 09:50:24;;;;;;;1.30;0.68;;;;;;;14.11;69.26;102876.44;5033688;28;100741;-30
2022/10/11 09:52:59;;;;;;;2.17;0.75;;;;;;;14.36;65.54;102871.69;5033677;28;96734;-29
2022/10/11 09:55:45;;;;;;;4.05;0.77;;;;;;;14.60;68.35;102879.75;5033875;28;96575;-31
2022/10/11 09:58:28;;;;;;;1.85;0.90;;;;;;;14.84;66.32;102875.88;5033498;28;100958;-29
2022/10/11 10:01:03;;;;;;;2.88;0.77;;;;;;;14.86;64.99;102865.75;5035252;28;97904;-30
2022/10/11 10:03:41;;;;;;;1.70;0.73;;;;;;;15.07;65.97;102879.38;5034979;27;96627;-30
2022/10/11 10:06:22;;;;;;;5.38;0.80;;;;;;;15.25;63.67;102872.09;5033730;28;96765;-30
2022/10/11 10:08:49;;;;;;;0.60;0.30;;;;;;;15.43;65.55;102873.94;5032898;28;100755;-30
2022/10/11 10:11:15;;;;;;;1.60;0.55;;;;;;;15.60;65.78;102870.38;5034840;27;97816;-29
2022/10/11 10:13:50;;;;;;;2.65;0.65;;;;;;;15.83;65.64;102865.63;5033168;28;96764;-29
2022/10/11 10:16:28;;;;;;;2.83;0.70;;;;;;;15.98;63.96;102875.75;5034734;27;96676;-29
2022/10/11 10:18:59;;;;;;;2.95;0.93;;;;;;;16.07;63.54;102868.94;5033296;28;100967;-30
2022/10/11 10:21:31;;;;;;;4.03;0.65;;;;;;;16.19;63.62;102870.13;5033244;28;101384;-30
2022/10/11 10:24:01;;;;;;;2.80;0.50;;;;;;;16.37;61.26;102862.78;5033417;28;96705;-29
2022/10/11 10:26:28;;;;;;;1.55;0.68;;;;;;;16.44;63.43;102866.97;5035034;28;96727;-29
2022/10/11 10:29:08;;;;;;;2.28;0.43;;;;;;;16.74;63.27;102868.03;5033061;28;101069;-29
2022/10/11 10:31:38;;;;;;;3.25;0.70;;;;;;;16.85;62.87;102859.25;5034346;27;98784;-31
2022/10/11 10:34:13;;;;;;;8.30;0.90;;;;;;;16.98;61.96;102859.44;5032972;28;96753;-29
2022/10/11 10:36:42;;;;;;;1.83;0.68;;;;;;;17.13;61.73;102869.50;5033328;28;96758;-29
2022/10/11 10:39:19;;;;;;;1.45;0.68;;;;;;;17.03;60.31;102859.19;5032915;28;100928;-30
2022/10/11 10:41:44;;;;;;;3.05;0.63;;;;;;;17.12;62.01;102864.16;5032784;28;99823;-30
2022/10/11 10:44:10;;;;;;;4.00;0.73;;;;;;;17.20;58.58;102864.56;5034813;27;96683;-30
2022/10/11 10:46:42;;;;;;;6.35;0.80;;;;;;;17.26;60.57;102863.34;5034170;28;96789;-29
2022/10/11 10:49:29;;;;;;;2.90;0.90;;;;;;;17.25;57.28;102853.34;5032791;28;100884;-30
2022/10/11 10:52:37;;;;;;;1.50;0.40;;;;;;;17.18;57.58;102847.34;5033126;28;100798;-29
2022/10/11 10:55:12;;;;;;;1.58;0.40;;;;;;;17.31;54.57;102850.28;5034391;28;96507;-29
2022/10/11 10:57:57;;;;;;;3.03;0.68;;;;;;;17.37;55.99;102853.50;5034661;27;96505;-30
2022/10/11 11:00:23;;;;;;;2.55;0.63;;;;;;;17.51;56.19;102846.34;5032234;27;101115;-28
2022/10/11 11:03:01;;;;;;;2.53;0.85;;;;;;;17.56;53.94;102841.47;5035982;28;101211;-30
2022/10/11 11:05:58;;;;;;;2.35;0.60;;;;;;;17.97;57.53;102850.00;5037864;27;96594;-29
2022/10/11 11:08:49;;;;;;;1.00;0.52;;;;;;;18.21;57.84;102843.97;5025102;28;96895;-30
2022/10/11 11:11:34;;;;;;;3.67;0.63;;;;;;;17.94;57.97;102852.03;5037377;28;99411;-31
2022/10/11 11:14:08;;;;;;;4.75;0.68;;;;;;;18.09;58.08;102847.47;5036931;27;98913;-30
2022/10/11 11:16:47;;;;;;;3.50;0.77;;;;;;;18.30;57.16;102848.00;5036469;28;96757;-29
2022/10/11 11:19:22;;;;;;;3.40;0.60;;;;;;;18.55;57.18;102847.38;5036605;28;96714;-30
2022/10/11 11:21:59;;;;;;;3.22;0.80;;;;;;;18.54;56.43;102840.09;5037003;28;99668;-31
2022/10/11 11:24:57;;;;;;;2.15;0.55;;;;;;;18.01;56.77;102840.59;5035663;28;101512;-31
2022/10/11 11:27:56;;;;;;;3.03;0.45;;;;;;;17.76;57.91;102848.53;5002729;27;96793;-30
2022/10/11 11:30:32;;;;;;;4.80;0.38;;;;;;;17.43;59.73;102843.19;5037446;27;96648;-30
2022/10/11 11:33:22;;;;;;;2.17;0.68;;;;;;;17.18;60.59;102847.34;5035769;28;101144;-30
2022/10/11 11:35:51;;;;;;;2.20;0.70;;;;;;;16.94;61.97;102841.41;5036961;27;99123;-29
2022/10/11 11:38:43;;;;;;;1.80;0.45;;;;;;;16.79;61.40;102834.97;5037162;28;96688;-29
2022/10/11 11:41:18;;;;;;;0.40;0.30;;;;;;;16.58;61.83;102836.13;5035325;28;96784;-29
2022/10/11 11:44:09;;;;;;;3.63;0.65;;;;;;;16.36;61.41;102829.09;5035649;28;100787;-30